Rawlins, Wyoming
Current Conditions -  °F | °C
As of 8:53 AM on Sunday 21 Dec 2014 (Local Time) from KRWL Reporting Station
Light Snow Light Snow  
Wind Chill: 16°   Ceiling: 1700
Heat Index: 31°   Visibility: 0.5mi
Dew Point: 27°   Wind: 32mph
Humidity: 85%   Direction: 240°WSW
Pressure: 29.71"   Gusts: 44mph
Location:  41.79°N, 107.23°W
Report Text: KRWL 211553Z AUTO 24028G38KT 1/2SM -SN FZFG VV017 M01/M03 A2971 RMK AO2 PK WND 24047/1529 UPB28E37SNB37 SLP069 P0000 T10061028
Loading
Personal Weather Stations






























Interactive Weather Map New forecast layout! Learn more

10-Day Weather Forecast

Advertisements
Track Severe Weather on mobile